sensor_id;sensor_type;location;lat;lon;timestamp;P1;durP1;ratioP1;P2;durP2;ratioP2
52816;SDS011;38687;43.330;21.924;2022-09-20T00:00:43;3.25;;;1.00;;
52816;SDS011;38687;43.330;21.924;2022-09-20T00:03:10;1.30;;;1.20;;
52816;SDS011;38687;43.330;21.924;2022-09-20T00:05:43;1.35;;;1.23;;
52816;SDS011;38687;43.330;21.924;2022-09-20T00:08:15;3.10;;;1.15;;
52816;SDS011;38687;43.330;21.924;2022-09-20T00:10:43;1.83;;;1.50;;
52816;SDS011;38687;43.330;21.924;2022-09-20T00:13:14;1.25;;;1.15;;
52816;SDS011;38687;43.330;21.924;2022-09-20T00:15:40;3.05;;;1.50;;
52816;SDS011;38687;43.330;21.924;2022-09-20T00:18:06;1.83;;;1.45;;
52816;SDS011;38687;43.330;21.924;2022-09-20T00:20:32;1.30;;;1.15;;
52816;SDS011;38687;43.330;21.924;2022-09-20T00:22:58;2.33;;;1.38;;
52816;SDS011;38687;43.330;21.924;2022-09-20T00:25:23;1.20;;;1.10;;
52816;SDS011;38687;43.330;21.924;2022-09-20T00:27:48;2.28;;;1.30;;
52816;SDS011;38687;43.330;21.924;2022-09-20T00:30:14;1.33;;;1.20;;
52816;SDS011;38687;43.330;21.924;2022-09-20T00:32:40;1.42;;;1.20;;
52816;SDS011;38687;43.330;21.924;2022-09-20T00:35:05;3.83;;;1.40;;
52816;SDS011;38687;43.330;21.924;2022-09-20T00:37:32;2.00;;;1.50;;
52816;SDS011;38687;43.330;21.924;2022-09-20T00:39:58;3.15;;;1.40;;
52816;SDS011;38687;43.330;21.924;2022-09-20T00:42:27;2.83;;;1.60;;
52816;SDS011;38687;43.330;21.924;2022-09-20T00:44:58;2.70;;;2.50;;
52816;SDS011;38687;43.330;21.924;2022-09-20T00:47:30;3.72;;;2.95;;
52816;SDS011;38687;43.330;21.924;2022-09-20T00:50:36;3.60;;;3.00;;
52816;SDS011;38687;43.330;21.924;2022-09-20T00:53:06;4.75;;;3.38;;
52816;SDS011;38687;43.330;21.924;2022-09-20T00:55:36;4.45;;;3.50;;
52816;SDS011;38687;43.330;21.924;2022-09-20T00:58:05;5.25;;;3.45;;
52816;SDS011;38687;43.330;21.924;2022-09-20T01:00:31;5.10;;;3.55;;
52816;SDS011;38687;43.330;21.924;2022-09-20T01:02:58;5.15;;;3.95;;
52816;SDS011;38687;43.330;21.924;2022-09-20T01:05:25;4.57;;;3.72;;
52816;SDS011;38687;43.330;21.924;2022-09-20T01:07:51;5.32;;;4.00;;
52816;SDS011;38687;43.330;21.924;2022-09-20T01:10:16;6.55;;;4.55;;
52816;SDS011;38687;43.330;21.924;2022-09-20T01:12:42;6.97;;;5.20;;
52816;SDS011;38687;43.330;21.924;2022-09-20T01:15:10;6.05;;;4.50;;
52816;SDS011;38687;43.330;21.924;2022-09-20T01:17:38;4.03;;;2.83;;
52816;SDS011;38687;43.330;21.924;2022-09-20T01:28:21;1.20;;;1.10;;
52816;SDS011;38687;43.330;21.924;2022-09-20T01:30:50;2.28;;;1.95;;
52816;SDS011;38687;43.330;21.924;2022-09-20T01:33:51;1.20;;;1.10;;
52816;SDS011;38687;43.330;21.924;2022-09-20T01:36:22;2.00;;;1.23;;
52816;SDS011;38687;43.330;21.924;2022-09-20T01:41:29;2.58;;;1.30;;
52816;SDS011;38687;43.330;21.924;2022-09-20T02:00:45;8.18;;;1.90;;
52816;SDS011;38687;43.330;21.924;2022-09-20T02:28:37;3.22;;;2.42;;
52816;SDS011;38687;43.330;21.924;2022-09-20T02:33:57;5.80;;;2.67;;
52816;SDS011;38687;43.330;21.924;2022-09-20T02:42:47;5.30;;;2.47;;
52816;SDS011;38687;43.330;21.924;2022-09-20T02:48:03;5.00;;;2.47;;
52816;SDS011;38687;43.330;21.924;2022-09-20T02:53:39;3.45;;;2.17;;
52816;SDS011;38687;43.330;21.924;2022-09-20T02:56:16;3.30;;;1.92;;
52816;SDS011;38687;43.330;21.924;2022-09-20T03:01:58;5.13;;;2.67;;
52816;SDS011;38687;43.330;21.924;2022-09-20T03:07:03;2.72;;;2.05;;
52816;SDS011;38687;43.330;21.924;2022-09-20T03:12:27;4.13;;;2.40;;
52816;SDS011;38687;43.330;21.924;2022-09-20T03:14:57;3.75;;;2.55;;
52816;SDS011;38687;43.330;21.924;2022-09-20T03:29:02;9.52;;;5.13;;
52816;SDS011;38687;43.330;21.924;2022-09-20T04:02:23;3.50;;;2.10;;
52816;SDS011;38687;43.330;21.924;2022-09-20T04:05:15;3.92;;;2.42;;
52816;SDS011;38687;43.330;21.924;2022-09-20T04:08:04;3.13;;;2.10;;
52816;SDS011;38687;43.330;21.924;2022-09-20T04:13:43;6.47;;;2.15;;
52816;SDS011;38687;43.330;21.924;2022-09-20T04:16:26;2.53;;;1.60;;
52816;SDS011;38687;43.330;21.924;2022-09-20T04:18:57;2.67;;;1.70;;
52816;SDS011;38687;43.330;21.924;2022-09-20T04:21:38;3.25;;;2.10;;
52816;SDS011;38687;43.330;21.924;2022-09-20T04:26:43;2.63;;;1.40;;
52816;SDS011;38687;43.330;21.924;2022-09-20T04:29:25;1.63;;;1.40;;
52816;SDS011;38687;43.330;21.924;2022-09-20T04:37:50;3.08;;;2.10;;
52816;SDS011;38687;43.330;21.924;2022-09-20T04:46:53;4.55;;;2.03;;
52816;SDS011;38687;43.330;21.924;2022-09-20T04:49:52;3.50;;;2.60;;
52816;SDS011;38687;43.330;21.924;2022-09-20T05:41:54;1.92;;;1.75;;
52816;SDS011;38687;43.330;21.924;2022-09-20T05:47:17;4.43;;;2.42;;
52816;SDS011;38687;43.330;21.924;2022-09-20T05:52:43;7.53;;;4.50;;
52816;SDS011;38687;43.330;21.924;2022-09-20T05:55:21;7.45;;;4.93;;
52816;SDS011;38687;43.330;21.924;2022-09-20T06:03:33;10.32;;;6.38;;
52816;SDS011;38687;43.330;21.924;2022-09-20T06:06:03;10.15;;;5.90;;
52816;SDS011;38687;43.330;21.924;2022-09-20T06:09:36;7.90;;;5.10;;
52816;SDS011;38687;43.330;21.924;2022-09-20T06:19:41;13.20;;;7.43;;
52816;SDS011;38687;43.330;21.924;2022-09-20T06:22:30;11.70;;;6.38;;
52816;SDS011;38687;43.330;21.924;2022-09-20T06:27:31;11.27;;;6.35;;
52816;SDS011;38687;43.330;21.924;2022-09-20T06:30:00;10.63;;;5.55;;
52816;SDS011;38687;43.330;21.924;2022-09-20T06:32:29;7.97;;;5.88;;
52816;SDS011;38687;43.330;21.924;2022-09-20T06:34:56;12.13;;;6.70;;
52816;SDS011;38687;43.330;21.924;2022-09-20T06:40:47;10.35;;;6.55;;
52816;SDS011;38687;43.330;21.924;2022-09-20T06:43:31;9.68;;;5.88;;
52816;SDS011;38687;43.330;21.924;2022-09-20T06:45:57;8.73;;;5.45;;
52816;SDS011;38687;43.330;21.924;2022-09-20T06:48:23;8.77;;;5.55;;
52816;SDS011;38687;43.330;21.924;2022-09-20T06:50:49;7.80;;;5.03;;
52816;SDS011;38687;43.330;21.924;2022-09-20T06:53:23;8.80;;;5.30;;
52816;SDS011;38687;43.330;21.924;2022-09-20T06:56:01;16.98;;;9.10;;
52816;SDS011;38687;43.330;21.924;2022-09-20T06:58:26;9.18;;;5.63;;
52816;SDS011;38687;43.330;21.924;2022-09-20T07:00:52;7.97;;;4.85;;
52816;SDS011;38687;43.330;21.924;2022-09-20T07:03:18;5.30;;;4.15;;
52816;SDS011;38687;43.330;21.924;2022-09-20T07:05:44;9.25;;;5.70;;
52816;SDS011;38687;43.330;21.924;2022-09-20T07:08:10;7.80;;;4.75;;
52816;SDS011;38687;43.330;21.924;2022-09-20T07:10:36;7.50;;;5.07;;
52816;SDS011;38687;43.330;21.924;2022-09-20T07:13:01;6.80;;;4.70;;
52816;SDS011;38687;43.330;21.924;2022-09-20T07:15:27;12.73;;;7.18;;
52816;SDS011;38687;43.330;21.924;2022-09-20T07:17:53;10.07;;;6.93;;
52816;SDS011;38687;43.330;21.924;2022-09-20T07:20:19;9.95;;;6.43;;
52816;SDS011;38687;43.330;21.924;2022-09-20T07:22:45;10.38;;;6.88;;
52816;SDS011;38687;43.330;21.924;2022-09-20T07:25:10;10.07;;;6.72;;
52816;SDS011;38687;43.330;21.924;2022-09-20T07:27:36;9.95;;;6.45;;
52816;SDS011;38687;43.330;21.924;2022-09-20T07:30:02;12.75;;;7.78;;
52816;SDS011;38687;43.330;21.924;2022-09-20T07:32:28;9.95;;;6.80;;
52816;SDS011;38687;43.330;21.924;2022-09-20T07:34:54;13.48;;;7.65;;
52816;SDS011;38687;43.330;21.924;2022-09-20T07:37:19;9.80;;;7.22;;
52816;SDS011;38687;43.330;21.924;2022-09-20T07:39:45;11.20;;;8.18;;
52816;SDS011;38687;43.330;21.924;2022-09-20T07:42:11;10.32;;;8.25;;
52816;SDS011;38687;43.330;21.924;2022-09-20T07:44:36;11.57;;;7.75;;
52816;SDS011;38687;43.330;21.924;2022-09-20T07:47:05;9.57;;;7.00;;
52816;SDS011;38687;43.330;21.924;2022-09-20T07:49:30;8.82;;;5.75;;
52816;SDS011;38687;43.330;21.924;2022-09-20T07:51:56;10.10;;;6.85;;
52816;SDS011;38687;43.330;21.924;2022-09-20T07:54:22;10.57;;;6.65;;
52816;SDS011;38687;43.330;21.924;2022-09-20T07:56:48;9.27;;;6.70;;
52816;SDS011;38687;43.330;21.924;2022-09-20T07:59:13;12.95;;;7.40;;
52816;SDS011;38687;43.330;21.924;2022-09-20T08:01:39;14.80;;;8.27;;
52816;SDS011;38687;43.330;21.924;2022-09-20T08:04:05;8.20;;;5.72;;
52816;SDS011;38687;43.330;21.924;2022-09-20T08:06:34;8.02;;;6.00;;
52816;SDS011;38687;43.330;21.924;2022-09-20T08:09:04;10.02;;;6.30;;
52816;SDS011;38687;43.330;21.924;2022-09-20T08:11:31;9.38;;;6.18;;
52816;SDS011;38687;43.330;21.924;2022-09-20T08:13:57;9.73;;;6.43;;
52816;SDS011;38687;43.330;21.924;2022-09-20T08:16:24;11.40;;;6.40;;
52816;SDS011;38687;43.330;21.924;2022-09-20T08:18:52;10.93;;;6.53;;
52816;SDS011;38687;43.330;21.924;2022-09-20T08:21:26;15.05;;;9.68;;
52816;SDS011;38687;43.330;21.924;2022-09-20T08:23:55;10.90;;;6.95;;
52816;SDS011;38687;43.330;21.924;2022-09-20T08:26:21;10.35;;;7.10;;
52816;SDS011;38687;43.330;21.924;2022-09-20T08:28:51;10.35;;;5.57;;
52816;SDS011;38687;43.330;21.924;2022-09-20T08:31:18;13.23;;;6.80;;
52816;SDS011;38687;43.330;21.924;2022-09-20T08:33:46;10.27;;;6.00;;
52816;SDS011;38687;43.330;21.924;2022-09-20T08:36:14;10.18;;;6.70;;
52816;SDS011;38687;43.330;21.924;2022-09-20T08:38:40;7.22;;;5.53;;
52816;SDS011;38687;43.330;21.924;2022-09-20T08:41:10;9.98;;;5.70;;
52816;SDS011;38687;43.330;21.924;2022-09-20T08:43:37;9.57;;;5.97;;
52816;SDS011;38687;43.330;21.924;2022-09-20T08:46:04;12.10;;;5.72;;
52816;SDS011;38687;43.330;21.924;2022-09-20T08:48:31;8.63;;;5.72;;
52816;SDS011;38687;43.330;21.924;2022-09-20T08:50:59;8.45;;;5.95;;
52816;SDS011;38687;43.330;21.924;2022-09-20T08:53:25;9.10;;;5.75;;
52816;SDS011;38687;43.330;21.924;2022-09-20T08:55:53;7.82;;;5.38;;
52816;SDS011;38687;43.330;21.924;2022-09-20T08:58:21;6.93;;;5.10;;
52816;SDS011;38687;43.330;21.924;2022-09-20T09:00:47;11.38;;;6.90;;
52816;SDS011;38687;43.330;21.924;2022-09-20T09:03:13;7.75;;;5.40;;
52816;SDS011;38687;43.330;21.924;2022-09-20T09:05:45;7.25;;;5.00;;
52816;SDS011;38687;43.330;21.924;2022-09-20T09:08:18;11.52;;;5.00;;
52816;SDS011;38687;43.330;21.924;2022-09-20T09:10:56;9.75;;;5.07;;
52816;SDS011;38687;43.330;21.924;2022-09-20T09:15:57;5.65;;;3.90;;
52816;SDS011;38687;43.330;21.924;2022-09-20T09:18:27;5.88;;;3.55;;
52816;SDS011;38687;43.330;21.924;2022-09-20T09:20:56;6.07;;;3.88;;
52816;SDS011;38687;43.330;21.924;2022-09-20T09:23:25;5.07;;;3.80;;
52816;SDS011;38687;43.330;21.924;2022-09-20T09:25:51;5.68;;;3.55;;
52816;SDS011;38687;43.330;21.924;2022-09-20T09:28:19;3.63;;;2.70;;
52816;SDS011;38687;43.330;21.924;2022-09-20T09:30:47;4.13;;;2.72;;
52816;SDS011;38687;43.330;21.924;2022-09-20T09:33:21;7.45;;;3.78;;
52816;SDS011;38687;43.330;21.924;2022-09-20T09:35:51;4.05;;;2.90;;
52816;SDS011;38687;43.330;21.924;2022-09-20T09:38:18;4.50;;;3.10;;
52816;SDS011;38687;43.330;21.924;2022-09-20T09:40:52;5.75;;;3.20;;
52816;SDS011;38687;43.330;21.924;2022-09-20T09:43:21;4.88;;;2.28;;
52816;SDS011;38687;43.330;21.924;2022-09-20T09:45:51;5.68;;;3.08;;
52816;SDS011;38687;43.330;21.924;2022-09-20T09:48:19;4.72;;;2.78;;
52816;SDS011;38687;43.330;21.924;2022-09-20T09:50:48;5.13;;;2.58;;
52816;SDS011;38687;43.330;21.924;2022-09-20T09:53:15;3.13;;;1.80;;
52816;SDS011;38687;43.330;21.924;2022-09-20T10:00:54;2.40;;;1.60;;
52816;SDS011;38687;43.330;21.924;2022-09-20T10:03:32;3.33;;;2.00;;
52816;SDS011;38687;43.330;21.924;2022-09-20T10:06:02;15.00;;;6.65;;
52816;SDS011;38687;43.330;21.924;2022-09-20T10:11:28;4.03;;;2.72;;
52816;SDS011;38687;43.330;21.924;2022-09-20T10:25:38;3.88;;;1.23;;
52816;SDS011;38687;43.330;21.924;2022-09-20T10:30:39;1.00;;;0.90;;
52816;SDS011;38687;43.330;21.924;2022-09-20T10:38:55;1.58;;;1.00;;
52816;SDS011;38687;43.330;21.924;2022-09-20T10:41:49;1.35;;;1.23;;
52816;SDS011;38687;43.330;21.924;2022-09-20T10:44:52;17.50;;;6.70;;
52816;SDS011;38687;43.330;21.924;2022-09-20T10:47:37;5.15;;;2.85;;
52816;SDS011;38687;43.330;21.924;2022-09-20T10:56:15;17.83;;;8.88;;
52816;SDS011;38687;43.330;21.924;2022-09-20T11:07:22;1.20;;;0.95;;
52816;SDS011;38687;43.330;21.924;2022-09-20T11:09:58;1.05;;;0.90;;
52816;SDS011;38687;43.330;21.924;2022-09-20T11:14:58;0.70;;;0.70;;
52816;SDS011;38687;43.330;21.924;2022-09-20T11:17:35;1.55;;;0.63;;
52816;SDS011;38687;43.330;21.924;2022-09-20T11:20:18;1.17;;;1.00;;
52816;SDS011;38687;43.330;21.924;2022-09-20T11:22:51;0.80;;;0.80;;
52816;SDS011;38687;43.330;21.924;2022-09-20T11:25:29;0.80;;;0.80;;
52816;SDS011;38687;43.330;21.924;2022-09-20T11:28:13;2.92;;;2.10;;
52816;SDS011;38687;43.330;21.924;2022-09-20T11:30:57;1.73;;;1.08;;
52816;SDS011;38687;43.330;21.924;2022-09-20T11:33:44;2.67;;;1.67;;
52816;SDS011;38687;43.330;21.924;2022-09-20T11:36:24;3.95;;;2.38;;
52816;SDS011;38687;43.330;21.924;2022-09-20T11:39:09;2.08;;;1.42;;
52816;SDS011;38687;43.330;21.924;2022-09-20T11:41:37;2.88;;;1.20;;
52816;SDS011;38687;43.330;21.924;2022-09-20T11:44:05;2.53;;;1.92;;
52816;SDS011;38687;43.330;21.924;2022-09-20T11:46:33;7.82;;;4.05;;
52816;SDS011;38687;43.330;21.924;2022-09-20T11:49:15;1.20;;;0.90;;
52816;SDS011;38687;43.330;21.924;2022-09-20T11:55:07;1.08;;;0.82;;
52816;SDS011;38687;43.330;21.924;2022-09-20T11:58:05;2.22;;;1.30;;
52816;SDS011;38687;43.330;21.924;2022-09-20T12:00:32;1.88;;;1.30;;
52816;SDS011;38687;43.330;21.924;2022-09-20T12:03:00;7.07;;;3.45;;
52816;SDS011;38687;43.330;21.924;2022-09-20T12:05:32;1.45;;;0.90;;
52816;SDS011;38687;43.330;21.924;2022-09-20T12:08:01;1.80;;;1.42;;
52816;SDS011;38687;43.330;21.924;2022-09-20T12:10:59;0.95;;;0.95;;
52816;SDS011;38687;43.330;21.924;2022-09-20T12:13:28;2.55;;;1.50;;
52816;SDS011;38687;43.330;21.924;2022-09-20T12:26:07;1.25;;;0.90;;
52816;SDS011;38687;43.330;21.924;2022-09-20T12:28:46;1.42;;;1.05;;
52816;SDS011;38687;43.330;21.924;2022-09-20T12:36:40;0.95;;;0.70;;
52816;SDS011;38687;43.330;21.924;2022-09-20T12:49:51;1.10;;;1.00;;
52816;SDS011;38687;43.330;21.924;2022-09-20T13:19:17;0.75;;;0.75;;
52816;SDS011;38687;43.330;21.924;2022-09-20T13:22:07;1.58;;;1.35;;
52816;SDS011;38687;43.330;21.924;2022-09-20T13:24:36;1.25;;;1.05;;
52816;SDS011;38687;43.330;21.924;2022-09-20T13:27:07;3.42;;;1.10;;
52816;SDS011;38687;43.330;21.924;2022-09-20T13:29:40;1.30;;;0.90;;
52816;SDS011;38687;43.330;21.924;2022-09-20T13:32:14;1.25;;;1.15;;
52816;SDS011;38687;43.330;21.924;2022-09-20T13:34:41;1.50;;;1.40;;
52816;SDS011;38687;43.330;21.924;2022-09-20T13:37:16;2.28;;;1.00;;
52816;SDS011;38687;43.330;21.924;2022-09-20T13:39:52;1.17;;;1.08;;
52816;SDS011;38687;43.330;21.924;2022-09-20T13:42:18;3.72;;;1.90;;
52816;SDS011;38687;43.330;21.924;2022-09-20T13:44:43;0.80;;;0.80;;
52816;SDS011;38687;43.330;21.924;2022-09-20T13:52:43;2.75;;;1.17;;
52816;SDS011;38687;43.330;21.924;2022-09-20T13:55:30;2.10;;;1.00;;
52816;SDS011;38687;43.330;21.924;2022-09-20T14:00:49;0.93;;;0.80;;
52816;SDS011;38687;43.330;21.924;2022-09-20T14:03:18;1.20;;;1.10;;
52816;SDS011;38687;43.330;21.924;2022-09-20T14:05:45;2.10;;;1.85;;
52816;SDS011;38687;43.330;21.924;2022-09-20T14:11:11;1.67;;;1.55;;
52816;SDS011;38687;43.330;21.924;2022-09-20T14:13:40;1.77;;;1.40;;
52816;SDS011;38687;43.330;21.924;2022-09-20T14:16:07;2.05;;;1.13;;
52816;SDS011;38687;43.330;21.924;2022-09-20T14:18:34;2.05;;;1.00;;
52816;SDS011;38687;43.330;21.924;2022-09-20T14:21:00;1.35;;;0.90;;
52816;SDS011;38687;43.330;21.924;2022-09-20T14:23:27;1.30;;;1.20;;
52816;SDS011;38687;43.330;21.924;2022-09-20T14:28:40;0.88;;;0.80;;
52816;SDS011;38687;43.330;21.924;2022-09-20T14:31:12;0.80;;;0.80;;
52816;SDS011;38687;43.330;21.924;2022-09-20T14:33:41;1.98;;;1.05;;
52816;SDS011;38687;43.330;21.924;2022-09-20T14:36:12;1.70;;;1.10;;
52816;SDS011;38687;43.330;21.924;2022-09-20T14:38:41;1.48;;;1.05;;
52816;SDS011;38687;43.330;21.924;2022-09-20T14:41:08;1.10;;;1.00;;
52816;SDS011;38687;43.330;21.924;2022-09-20T14:43:33;1.38;;;1.10;;
52816;SDS011;38687;43.330;21.924;2022-09-20T14:46:03;3.28;;;2.72;;
52816;SDS011;38687;43.330;21.924;2022-09-20T14:48:32;2.35;;;1.50;;
52816;SDS011;38687;43.330;21.924;2022-09-20T14:53:43;1.30;;;0.88;;
52816;SDS011;38687;43.330;21.924;2022-09-20T14:56:11;0.80;;;0.70;;
52816;SDS011;38687;43.330;21.924;2022-09-20T15:01:35;0.90;;;0.90;;
52816;SDS011;38687;43.330;21.924;2022-09-20T15:04:08;1.15;;;1.05;;
52816;SDS011;38687;43.330;21.924;2022-09-20T15:06:47;0.80;;;0.80;;
52816;SDS011;38687;43.330;21.924;2022-09-20T15:09:13;0.95;;;0.85;;
52816;SDS011;38687;43.330;21.924;2022-09-20T15:11:39;1.38;;;0.80;;
52816;SDS011;38687;43.330;21.924;2022-09-20T15:14:05;1.20;;;1.10;;
52816;SDS011;38687;43.330;21.924;2022-09-20T15:16:31;1.38;;;1.00;;
52816;SDS011;38687;43.330;21.924;2022-09-20T15:18:57;1.00;;;0.90;;
52816;SDS011;38687;43.330;21.924;2022-09-20T15:21:23;3.10;;;1.45;;
52816;SDS011;38687;43.330;21.924;2022-09-20T15:23:49;1.00;;;0.80;;
52816;SDS011;38687;43.330;21.924;2022-09-20T15:26:14;1.60;;;1.33;;
52816;SDS011;38687;43.330;21.924;2022-09-20T15:28:40;1.00;;;0.90;;
52816;SDS011;38687;43.330;21.924;2022-09-20T15:31:06;3.33;;;1.33;;
52816;SDS011;38687;43.330;21.924;2022-09-20T15:33:31;1.00;;;0.90;;
52816;SDS011;38687;43.330;21.924;2022-09-20T15:35:57;2.53;;;1.33;;
52816;SDS011;38687;43.330;21.924;2022-09-20T15:38:23;0.75;;;0.75;;
52816;SDS011;38687;43.330;21.924;2022-09-20T15:40:51;1.00;;;0.93;;
52816;SDS011;38687;43.330;21.924;2022-09-20T15:43:23;3.45;;;1.70;;
52816;SDS011;38687;43.330;21.924;2022-09-20T15:45:58;1.27;;;1.17;;
52816;SDS011;38687;43.330;21.924;2022-09-20T15:48:25;1.92;;;1.10;;
52816;SDS011;38687;43.330;21.924;2022-09-20T15:51:05;2.25;;;1.83;;
52816;SDS011;38687;43.330;21.924;2022-09-20T15:53:33;1.33;;;1.20;;
52816;SDS011;38687;43.330;21.924;2022-09-20T15:55:59;1.85;;;1.00;;
52816;SDS011;38687;43.330;21.924;2022-09-20T15:58:30;1.40;;;1.30;;
52816;SDS011;38687;43.330;21.924;2022-09-20T16:01:05;2.08;;;1.40;;
52816;SDS011;38687;43.330;21.924;2022-09-20T16:03:32;1.95;;;1.08;;
52816;SDS011;38687;43.330;21.924;2022-09-20T16:06:02;2.58;;;1.77;;
52816;SDS011;38687;43.330;21.924;2022-09-20T16:08:30;2.30;;;1.45;;
52816;SDS011;38687;43.330;21.924;2022-09-20T16:10:57;2.13;;;1.67;;
52816;SDS011;38687;43.330;21.924;2022-09-20T16:13:23;1.45;;;1.35;;
52816;SDS011;38687;43.330;21.924;2022-09-20T16:16:08;1.17;;;1.00;;
52816;SDS011;38687;43.330;21.924;2022-09-20T16:18:38;1.73;;;1.30;;
52816;SDS011;38687;43.330;21.924;2022-09-20T16:21:22;1.48;;;1.38;;
52816;SDS011;38687;43.330;21.924;2022-09-20T16:23:52;2.40;;;1.55;;
52816;SDS011;38687;43.330;21.924;2022-09-20T16:26:20;2.33;;;1.58;;
52816;SDS011;38687;43.330;21.924;2022-09-20T16:28:46;1.77;;;1.00;;
52816;SDS011;38687;43.330;21.924;2022-09-20T16:31:29;2.42;;;1.48;;
52816;SDS011;38687;43.330;21.924;2022-09-20T16:34:00;1.80;;;1.70;;
52816;SDS011;38687;43.330;21.924;2022-09-20T16:36:30;3.08;;;2.03;;
52816;SDS011;38687;43.330;21.924;2022-09-20T16:38:56;2.20;;;1.73;;
52816;SDS011;38687;43.330;21.924;2022-09-20T16:41:22;3.22;;;2.33;;
52816;SDS011;38687;43.330;21.924;2022-09-20T16:43:49;4.22;;;2.22;;
52816;SDS011;38687;43.330;21.924;2022-09-20T16:46:16;4.95;;;2.55;;
52816;SDS011;38687;43.330;21.924;2022-09-20T16:48:46;3.58;;;2.75;;
52816;SDS011;38687;43.330;21.924;2022-09-20T16:51:12;4.47;;;2.30;;
52816;SDS011;38687;43.330;21.924;2022-09-20T16:53:38;4.15;;;2.10;;
52816;SDS011;38687;43.330;21.924;2022-09-20T16:56:04;3.15;;;2.10;;
52816;SDS011;38687;43.330;21.924;2022-09-20T16:58:32;3.03;;;1.88;;
52816;SDS011;38687;43.330;21.924;2022-09-20T17:01:04;2.63;;;2.28;;
52816;SDS011;38687;43.330;21.924;2022-09-20T17:03:30;6.88;;;3.50;;
52816;SDS011;38687;43.330;21.924;2022-09-20T17:06:00;6.72;;;4.57;;
52816;SDS011;38687;43.330;21.924;2022-09-20T17:08:26;10.48;;;5.25;;
52816;SDS011;38687;43.330;21.924;2022-09-20T17:10:51;13.88;;;6.85;;
52816;SDS011;38687;43.330;21.924;2022-09-20T17:13:19;10.68;;;5.72;;
52816;SDS011;38687;43.330;21.924;2022-09-20T17:15:44;18.92;;;6.65;;
52816;SDS011;38687;43.330;21.924;2022-09-20T17:18:10;17.88;;;9.18;;
52816;SDS011;38687;43.330;21.924;2022-09-20T17:20:36;77.95;;;33.10;;
52816;SDS011;38687;43.330;21.924;2022-09-20T17:23:04;66.55;;;28.25;;
52816;SDS011;38687;43.330;21.924;2022-09-20T17:25:33;33.08;;;15.90;;
52816;SDS011;38687;43.330;21.924;2022-09-20T17:27:58;15.27;;;7.55;;
52816;SDS011;38687;43.330;21.924;2022-09-20T17:30:24;10.77;;;5.90;;
52816;SDS011;38687;43.330;21.924;2022-09-20T17:32:50;10.00;;;5.20;;
52816;SDS011;38687;43.330;21.924;2022-09-20T17:35:15;7.25;;;4.57;;
52816;SDS011;38687;43.330;21.924;2022-09-20T17:37:42;10.15;;;5.00;;
52816;SDS011;38687;43.330;21.924;2022-09-20T17:40:08;6.63;;;4.55;;
52816;SDS011;38687;43.330;21.924;2022-09-20T17:42:34;8.25;;;5.30;;
52816;SDS011;38687;43.330;21.924;2022-09-20T17:45:02;7.78;;;5.32;;
52816;SDS011;38687;43.330;21.924;2022-09-20T17:47:27;8.70;;;5.45;;
52816;SDS011;38687;43.330;21.924;2022-09-20T17:49:52;7.43;;;5.75;;
52816;SDS011;38687;43.330;21.924;2022-09-20T17:52:19;10.93;;;6.38;;
52816;SDS011;38687;43.330;21.924;2022-09-20T17:54:44;8.15;;;5.75;;
52816;SDS011;38687;43.330;21.924;2022-09-20T17:57:10;7.65;;;5.22;;
52816;SDS011;38687;43.330;21.924;2022-09-20T17:59:35;10.75;;;6.80;;
52816;SDS011;38687;43.330;21.924;2022-09-20T18:02:01;13.10;;;8.77;;
52816;SDS011;38687;43.330;21.924;2022-09-20T18:04:26;10.98;;;7.47;;
52816;SDS011;38687;43.330;21.924;2022-09-20T18:06:52;13.23;;;10.10;;
52816;SDS011;38687;43.330;21.924;2022-09-20T18:09:19;10.07;;;8.30;;
52816;SDS011;38687;43.330;21.924;2022-09-20T18:11:47;9.40;;;6.53;;
52816;SDS011;38687;43.330;21.924;2022-09-20T18:14:17;16.83;;;9.35;;
52816;SDS011;38687;43.330;21.924;2022-09-20T18:16:44;12.60;;;9.23;;
52816;SDS011;38687;43.330;21.924;2022-09-20T18:19:10;13.95;;;8.90;;
52816;SDS011;38687;43.330;21.924;2022-09-20T18:21:37;7.90;;;5.95;;
52816;SDS011;38687;43.330;21.924;2022-09-20T18:24:04;9.10;;;5.85;;
52816;SDS011;38687;43.330;21.924;2022-09-20T18:26:30;8.18;;;5.75;;
52816;SDS011;38687;43.330;21.924;2022-09-20T18:34:00;14.70;;;7.95;;
52816;SDS011;38687;43.330;21.924;2022-09-20T18:36:27;17.17;;;10.68;;
52816;SDS011;38687;43.330;21.924;2022-09-20T18:38:54;12.82;;;8.85;;
52816;SDS011;38687;43.330;21.924;2022-09-20T18:41:21;20.70;;;12.57;;
52816;SDS011;38687;43.330;21.924;2022-09-20T18:43:51;16.75;;;10.82;;
52816;SDS011;38687;43.330;21.924;2022-09-20T18:46:17;14.77;;;9.57;;
52816;SDS011;38687;43.330;21.924;2022-09-20T18:48:52;9.13;;;6.32;;
52816;SDS011;38687;43.330;21.924;2022-09-20T18:51:18;11.02;;;7.15;;
52816;SDS011;38687;43.330;21.924;2022-09-20T18:53:44;18.77;;;10.75;;
52816;SDS011;38687;43.330;21.924;2022-09-20T18:58:43;15.10;;;10.15;;
52816;SDS011;38687;43.330;21.924;2022-09-20T19:06:37;10.38;;;6.13;;
52816;SDS011;38687;43.330;21.924;2022-09-20T19:09:14;14.10;;;6.82;;
52816;SDS011;38687;43.330;21.924;2022-09-20T19:11:46;10.63;;;5.57;;
52816;SDS011;38687;43.330;21.924;2022-09-20T19:14:44;8.05;;;5.82;;
52816;SDS011;38687;43.330;21.924;2022-09-20T19:17:16;6.65;;;4.93;;
52816;SDS011;38687;43.330;21.924;2022-09-20T19:19:48;15.38;;;6.50;;
52816;SDS011;38687;43.330;21.924;2022-09-20T19:25:10;7.90;;;5.05;;
52816;SDS011;38687;43.330;21.924;2022-09-20T19:27:39;7.60;;;4.82;;
52816;SDS011;38687;43.330;21.924;2022-09-20T19:30:05;6.00;;;4.47;;
52816;SDS011;38687;43.330;21.924;2022-09-20T19:32:31;6.35;;;4.07;;
52816;SDS011;38687;43.330;21.924;2022-09-20T19:34:58;5.60;;;3.95;;
52816;SDS011;38687;43.330;21.924;2022-09-20T19:37:35;5.43;;;3.55;;
52816;SDS011;38687;43.330;21.924;2022-09-20T19:45:27;4.10;;;2.65;;
52816;SDS011;38687;43.330;21.924;2022-09-20T19:50:57;4.43;;;3.05;;
52816;SDS011;38687;43.330;21.924;2022-09-20T19:53:23;4.15;;;3.55;;
52816;SDS011;38687;43.330;21.924;2022-09-20T19:55:59;5.75;;;3.88;;
52816;SDS011;38687;43.330;21.924;2022-09-20T19:58:28;6.25;;;3.92;;
52816;SDS011;38687;43.330;21.924;2022-09-20T20:00:54;6.75;;;4.30;;
52816;SDS011;38687;43.330;21.924;2022-09-20T20:03:20;11.07;;;6.45;;
52816;SDS011;38687;43.330;21.924;2022-09-20T20:05:55;18.60;;;9.38;;
52816;SDS011;38687;43.330;21.924;2022-09-20T20:13:57;3.95;;;3.42;;
52816;SDS011;38687;43.330;21.924;2022-09-20T20:19:12;4.38;;;3.42;;
52816;SDS011;38687;43.330;21.924;2022-09-20T20:22:03;4.97;;;3.47;;
52816;SDS011;38687;43.330;21.924;2022-09-20T20:24:52;4.07;;;3.15;;
52816;SDS011;38687;43.330;21.924;2022-09-20T20:27:18;8.02;;;5.82;;
52816;SDS011;38687;43.330;21.924;2022-09-20T20:29:44;6.13;;;3.65;;
52816;SDS011;38687;43.330;21.924;2022-09-20T20:32:10;5.35;;;3.92;;
52816;SDS011;38687;43.330;21.924;2022-09-20T20:34:35;9.90;;;5.97;;
52816;SDS011;38687;43.330;21.924;2022-09-20T20:37:02;11.15;;;6.47;;
52816;SDS011;38687;43.330;21.924;2022-09-20T20:39:28;5.82;;;5.15;;
52816;SDS011;38687;43.330;21.924;2022-09-20T20:41:55;7.28;;;5.45;;
52816;SDS011;38687;43.330;21.924;2022-09-20T20:44:25;11.05;;;5.68;;
52816;SDS011;38687;43.330;21.924;2022-09-20T20:46:54;12.13;;;6.25;;
52816;SDS011;38687;43.330;21.924;2022-09-20T20:49:19;9.60;;;5.43;;
52816;SDS011;38687;43.330;21.924;2022-09-20T20:51:45;5.95;;;5.30;;
52816;SDS011;38687;43.330;21.924;2022-09-20T20:54:12;5.28;;;4.20;;
52816;SDS011;38687;43.330;21.924;2022-09-20T20:56:38;7.82;;;5.32;;